createdAt,value
2019-05-02T00:00:57.024Z,10.42
2019-05-02T00:03:27.821Z,10.38
2019-05-02T00:05:57.473Z,10.36
2019-05-02T00:08:29.232Z,10.32
2019-05-02T00:10:59.244Z,10.28
2019-05-02T00:13:29.302Z,10.25
2019-05-02T00:15:59.416Z,10.24
2019-05-02T00:18:31.966Z,10.23
2019-05-02T00:21:01.416Z,10.21
2019-05-02T00:23:31.917Z,10.21
2019-05-02T00:26:01.560Z,10.08
2019-05-02T00:28:31.180Z,10.03
2019-05-02T00:31:00.814Z,9.96
2019-05-02T00:33:34.368Z,9.91
2019-05-02T00:36:01.862Z,9.85
2019-05-02T00:38:33.380Z,9.83
2019-05-02T00:41:03.681Z,9.79
2019-05-02T00:43:34.414Z,9.78
2019-05-02T00:46:04.757Z,9.74
2019-05-02T00:48:36.011Z,9.66
2019-05-02T00:51:05.648Z,9.70
2019-05-02T00:53:35.327Z,9.67
2019-05-02T00:56:08.984Z,9.68
2019-05-02T00:58:36.587Z,9.65
2019-05-02T01:01:13.582Z,9.59
2019-05-02T01:03:47.138Z,9.54
2019-05-02T01:06:16.166Z,9.52
2019-05-02T01:08:45.784Z,9.49
2019-05-02T01:11:15.924Z,9.40
2019-05-02T01:13:50.231Z,9.39
2019-05-02T01:16:19.053Z,9.24
2019-05-02T01:18:49.398Z,9.13
2019-05-02T01:21:19.014Z,8.98
2019-05-02T01:23:48.666Z,8.77
2019-05-02T01:26:24.236Z,8.63
2019-05-02T01:29:02.468Z,8.53
2019-05-02T01:31:45.451Z,8.46
2019-05-02T01:34:19.421Z,8.47
2019-05-02T01:36:56.327Z,8.45
2019-05-02T01:39:26.135Z,8.42
2019-05-02T01:42:00.055Z,8.44
2019-05-02T01:44:31.154Z,8.44
2019-05-02T01:46:59.950Z,8.47
2019-05-02T01:49:29.677Z,8.50
2019-05-02T01:51:59.286Z,8.45
2019-05-02T01:54:28.933Z,8.42
2019-05-02T01:56:58.544Z,8.43
2019-05-02T01:59:29.058Z,8.43
2019-05-02T02:01:59.525Z,8.43
2019-05-02T02:04:29.138Z,8.37
2019-05-02T02:06:58.757Z,8.26
2019-05-02T02:09:28.396Z,8.29
2019-05-02T02:11:58.012Z,8.31
2019-05-02T02:14:27.653Z,8.28
2019-05-02T02:16:57.281Z,8.28
2019-05-02T02:19:38.740Z,8.26
2019-05-02T02:22:12.919Z,8.22
2019-05-02T02:24:44.197Z,8.27
2019-05-02T02:27:13.825Z,8.29
2019-05-02T02:29:44.109Z,8.29
2019-05-02T02:32:20.181Z,8.30
2019-05-02T02:34:46.281Z,8.30
2019-05-02T02:37:15.893Z,8.29
2019-05-02T02:39:48.671Z,8.22
2019-05-02T02:42:16.891Z,8.25
2019-05-02T02:44:50.815Z,8.26
2019-05-02T02:47:21.258Z,8.24
2019-05-02T02:49:55.704Z,8.22
2019-05-02T02:52:22.362Z,8.24
2019-05-02T02:54:51.971Z,8.21
2019-05-02T02:57:26.497Z,8.19
2019-05-02T02:59:53.160Z,8.19
2019-05-02T03:02:22.800Z,8.16
2019-05-02T03:04:53.370Z,8.13
2019-05-02T03:07:25.923Z,8.18
2019-05-02T03:09:59.540Z,8.10
2019-05-02T03:12:27.327Z,8.17
2019-05-02T03:14:58.584Z,8.18
2019-05-02T03:17:28.893Z,8.15
2019-05-02T03:20:01.074Z,8.19
2019-05-02T03:22:34.924Z,8.20
2019-05-02T03:25:01.267Z,8.18
2019-05-02T03:27:37.491Z,8.23
2019-05-02T03:30:03.491Z,8.28
2019-05-02T03:32:35.958Z,8.35
2019-05-02T03:35:05.153Z,8.37
2019-05-02T03:37:34.790Z,8.27
2019-05-02T03:40:05.339Z,8.32
2019-05-02T03:42:44.030Z,8.36
2019-05-02T03:45:06.639Z,8.34
2019-05-02T03:47:43.019Z,8.34
2019-05-02T03:50:09.210Z,8.32
2019-05-02T03:52:43.660Z,8.36
2019-05-02T03:55:10.927Z,8.38
2019-05-02T03:57:42.066Z,8.37
2019-05-02T04:00:21.254Z,8.37
2019-05-02T04:02:44.855Z,8.34
2019-05-02T04:05:14.611Z,8.41
2019-05-02T04:07:44.326Z,8.32
2019-05-02T04:10:19.736Z,8.35
2019-05-02T04:12:53.190Z,8.32
2019-05-02T04:15:20.607Z,8.34
2019-05-02T04:17:51.691Z,8.34
2019-05-02T04:20:22.252Z,8.38
2019-05-02T04:22:52.356Z,8.43
2019-05-02T04:25:27.895Z,8.50
2019-05-02T04:27:55.280Z,8.53
2019-05-02T04:30:24.910Z,8.59
2019-05-02T04:32:55.718Z,8.56
2019-05-02T04:35:28.682Z,8.62
2019-05-02T04:38:00.969Z,8.56
2019-05-02T04:40:34.901Z,8.57
2019-05-02T04:43:07.044Z,8.61
2019-05-02T04:45:50.883Z,8.68
2019-05-02T04:48:04.126Z,8.69
2019-05-02T04:50:33.810Z,8.77
2019-05-02T04:53:03.470Z,8.79
2019-05-02T04:55:33.689Z,8.89
2019-05-02T04:58:03.410Z,8.86
2019-05-02T05:00:33.038Z,8.87
2019-05-02T05:03:09.460Z,8.88
2019-05-02T05:05:34.274Z,8.91
2019-05-02T05:08:03.923Z,8.97
2019-05-02T05:10:39.929Z,9.03
2019-05-02T05:13:04.900Z,9.06
2019-05-02T05:15:41.085Z,9.04
2019-05-02T05:18:10.492Z,9.05
2019-05-02T05:20:38.579Z,9.01
2019-05-02T05:23:08.529Z,9.00
2019-05-02T05:25:42.722Z,9.07
2019-05-02T05:28:12.375Z,8.97
2019-05-02T05:30:45.026Z,9.00
2019-05-02T05:33:13.344Z,9.01
2019-05-02T05:35:47.742Z,9.05
2019-05-02T05:38:14.331Z,9.04
2019-05-02T05:40:43.984Z,9.14
2019-05-02T05:43:15.803Z,9.27
2019-05-02T05:45:53.477Z,9.27
2019-05-02T05:48:18.271Z,9.33
2019-05-02T05:50:47.862Z,9.27
2019-05-02T05:53:20.983Z,9.26
2019-05-02T05:55:48.858Z,9.17
2019-05-02T05:58:18.865Z,9.19
2019-05-02T06:00:53.823Z,9.21
2019-05-02T06:03:19.880Z,9.31
2019-05-02T06:05:49.527Z,9.32
2019-05-02T06:08:19.958Z,9.18
2019-05-02T06:10:49.675Z,9.22
2019-05-02T06:13:19.291Z,9.13
2019-05-02T06:16:01.581Z,9.07
2019-05-02T06:18:20.248Z,9.11
2019-05-02T06:20:49.890Z,9.17
2019-05-02T06:23:19.684Z,9.23
2019-05-02T06:25:49.345Z,9.16
2019-05-02T06:28:18.962Z,9.19
2019-05-02T06:30:48.619Z,9.11
2019-05-02T06:33:18.233Z,9.04
2019-05-02T06:35:51.855Z,9.01
2019-05-02T06:38:21.636Z,8.95
2019-05-02T06:40:50.840Z,9.07
2019-05-02T06:43:20.463Z,9.25
2019-05-02T06:45:50.124Z,9.35
2019-05-02T06:48:19.741Z,9.35
2019-05-02T06:50:49.461Z,9.28
2019-05-02T06:53:19.080Z,9.39
2019-05-02T06:55:48.723Z,9.49
2019-05-02T06:58:18.348Z,9.41
2019-05-02T07:00:56.724Z,9.38
2019-05-02T07:03:19.367Z,9.36
2019-05-02T07:05:50.032Z,9.40
2019-05-02T07:08:19.801Z,9.29
2019-05-02T07:10:49.500Z,9.30
2019-05-02T07:13:19.115Z,9.32
2019-05-02T07:16:02.145Z,9.29
2019-05-02T07:18:33.404Z,9.38
2019-05-02T07:21:04.415Z,9.44
2019-05-02T07:23:34.040Z,9.54
2019-05-02T07:26:03.687Z,9.54
2019-05-02T07:28:33.314Z,9.69
2019-05-02T07:31:06.575Z,9.78
2019-05-02T07:33:37.408Z,9.81
2019-05-02T07:36:05.685Z,9.98
2019-05-02T07:38:35.323Z,10.11
2019-05-02T07:41:05.128Z,10.18
2019-05-02T07:43:35.150Z,10.20
2019-05-02T07:46:05.072Z,10.05
2019-05-02T07:48:34.690Z,9.92
2019-05-02T07:51:04.335Z,9.82
2019-05-02T07:53:34.033Z,9.85
2019-05-02T07:56:03.752Z,9.89
2019-05-02T07:58:33.364Z,9.99
2019-05-02T08:01:03.007Z,9.95
2019-05-02T08:03:34.740Z,9.98
2019-05-02T08:06:04.707Z,9.94
2019-05-02T08:08:36.355Z,10.00
2019-05-02T08:11:05.776Z,10.12
2019-05-02T08:13:35.435Z,10.16
2019-05-02T08:16:05.120Z,10.18
2019-05-02T08:18:34.760Z,10.12
2019-05-02T08:21:04.633Z,10.37
2019-05-02T08:23:34.280Z,10.54
2019-05-02T08:26:03.977Z,10.49
2019-05-02T08:28:37.920Z,10.49
2019-05-02T08:31:07.544Z,10.51
2019-05-02T08:33:37.198Z,10.73
2019-05-02T08:36:07.122Z,10.61
2019-05-02T08:38:36.765Z,10.50
2019-05-02T08:41:06.384Z,10.56
2019-05-02T08:43:40.246Z,10.71
2019-05-02T08:46:09.468Z,10.71
2019-05-02T08:48:41.744Z,10.53
2019-05-02T08:51:10.006Z,10.47
2019-05-02T08:53:39.643Z,10.30
2019-05-02T08:56:09.268Z,10.29
2019-05-02T08:58:38.923Z,10.44
2019-05-02T09:01:09.278Z,10.28
2019-05-02T09:03:54.606Z,10.19
2019-05-02T09:06:11.200Z,10.31
2019-05-02T09:08:40.849Z,10.28
2019-05-02T09:11:14.238Z,10.35
2019-05-02T09:13:42.246Z,10.46
2019-05-02T09:16:12.132Z,10.54
2019-05-02T09:18:50.633Z,10.67
2019-05-02T09:21:13.079Z,10.80
2019-05-02T09:23:43.987Z,10.82
2019-05-02T09:26:13.821Z,10.98
2019-05-02T09:28:43.467Z,11.10
2019-05-02T09:31:14.732Z,11.11
2019-05-02T09:33:46.824Z,11.15
2019-05-02T09:36:15.813Z,11.29
2019-05-02T09:38:48.717Z,11.25
2019-05-02T09:41:19.333Z,11.23
2019-05-02T09:43:48.132Z,11.35
2019-05-02T09:46:17.760Z,11.44
2019-05-02T09:48:47.418Z,11.59
2019-05-02T09:51:17.575Z,11.72
2019-05-02T09:53:47.265Z,11.71
2019-05-02T09:56:16.884Z,11.43
2019-05-02T09:58:49.321Z,11.40
2019-05-02T10:01:19.727Z,11.57
2019-05-02T10:03:49.379Z,11.86
2019-05-02T10:06:19.067Z,11.89
2019-05-02T10:08:48.722Z,11.78
2019-05-02T10:11:22.542Z,12.12
2019-05-02T10:13:51.722Z,12.31
2019-05-02T10:16:23.587Z,12.37
2019-05-02T10:18:52.527Z,12.45
2019-05-02T10:21:22.797Z,12.27
2019-05-02T10:23:59.122Z,12.37
2019-05-02T10:26:24.853Z,12.35
2019-05-02T10:28:54.640Z,12.33
2019-05-02T10:31:27.519Z,12.69
2019-05-02T10:33:56.061Z,12.65
2019-05-02T10:36:25.716Z,12.82
2019-05-02T10:38:59.168Z,13.11
2019-05-02T10:41:31.682Z,13.47
2019-05-02T10:43:59.576Z,13.44
2019-05-02T10:46:37.717Z,13.46
2019-05-02T10:49:12.942Z,13.68
2019-05-02T10:51:49.015Z,13.72
2019-05-02T10:54:13.917Z,13.82
2019-05-02T10:56:43.566Z,13.67
2019-05-02T10:59:13.184Z,13.83
2019-05-02T11:01:44.475Z,13.78
2019-05-02T11:04:15.084Z,13.63
2019-05-02T11:06:46.267Z,13.43
2019-05-02T11:09:16.710Z,13.33
2019-05-02T11:11:47.404Z,13.39
2019-05-02T11:14:22.548Z,13.77
2019-05-02T11:17:01.659Z,14.86
2019-05-02T11:19:48.116Z,14.78
2019-05-02T11:22:17.761Z,14.21
2019-05-02T11:24:47.448Z,13.53
2019-05-02T11:27:17.101Z,13.65
2019-05-02T11:29:46.730Z,13.47
2019-05-02T11:32:16.390Z,13.42
2019-05-02T11:34:46.011Z,13.64
2019-05-02T11:37:15.671Z,13.54
2019-05-02T11:39:51.781Z,13.39
2019-05-02T11:42:17.838Z,13.27
2019-05-02T11:44:47.963Z,13.00
2019-05-02T11:47:24.894Z,12.93
2019-05-02T11:49:52.115Z,12.98
2019-05-02T11:52:22.143Z,13.27
2019-05-02T11:54:52.098Z,13.24
2019-05-02T11:57:28.697Z,13.15
2019-05-02T11:59:53.714Z,13.09
2019-05-02T12:02:37.444Z,13.01
2019-05-02T12:05:09.973Z,13.10
2019-05-02T12:07:41.702Z,13.02
2019-05-02T12:10:12.543Z,13.01
2019-05-02T12:12:42.988Z,12.96
2019-05-02T12:15:12.875Z,13.45
2019-05-02T12:17:42.504Z,13.86
2019-05-02T12:20:12.922Z,14.62
2019-05-02T12:22:42.564Z,14.14
2019-05-02T12:25:12.769Z,14.35
2019-05-02T12:27:42.635Z,14.25
2019-05-02T12:30:12.331Z,14.22
2019-05-02T12:32:42.683Z,13.88
2019-05-02T12:35:12.621Z,13.68
2019-05-02T12:37:42.537Z,13.86
2019-05-02T12:40:12.434Z,13.85
2019-05-02T12:42:42.060Z,13.61
2019-05-02T12:45:12.546Z,13.74
2019-05-02T12:47:42.796Z,13.72
2019-05-02T12:50:13.147Z,14.04
2019-05-02T12:52:43.039Z,14.02
2019-05-02T12:55:12.964Z,13.80
2019-05-02T12:57:42.988Z,13.90
2019-05-02T13:00:13.522Z,13.97
2019-05-02T13:02:47.192Z,14.06
2019-05-02T13:05:16.854Z,13.87
2019-05-02T13:07:50.698Z,14.09
2019-05-02T13:10:35.775Z,14.11
2019-05-02T13:13:07.048Z,13.91
2019-05-02T13:15:37.647Z,13.97
2019-05-02T13:18:07.618Z,14.08
2019-05-02T13:20:38.444Z,13.94
2019-05-02T13:23:34.079Z,13.88
2019-05-02T13:26:00.080Z,13.94
2019-05-02T13:28:29.726Z,14.28
2019-05-02T13:31:02.371Z,14.18
2019-05-02T13:33:35.787Z,14.07
2019-05-02T13:36:05.333Z,14.16
2019-05-02T13:38:34.951Z,13.98
2019-05-02T13:41:04.597Z,14.03
2019-05-02T13:43:35.901Z,13.94
2019-05-02T13:46:12.852Z,13.99
2019-05-02T13:48:42.963Z,14.08
2019-05-02T13:51:12.665Z,14.11
2019-05-02T13:53:46.928Z,13.97
2019-05-02T13:56:22.975Z,13.86
2019-05-02T13:58:52.625Z,14.09
2019-05-02T14:01:22.556Z,14.00
2019-05-02T14:03:55.623Z,14.10
2019-05-02T14:06:29.661Z,14.14
2019-05-02T14:08:56.600Z,14.01
2019-05-02T14:11:43.524Z,13.90
2019-05-02T14:14:13.263Z,14.11
2019-05-02T14:16:42.877Z,14.27
2019-05-02T14:19:12.711Z,14.35
2019-05-02T14:21:42.334Z,14.49
2019-05-02T14:24:11.985Z,14.37
2019-05-02T14:26:43.439Z,14.29
2019-05-02T14:29:16.241Z,14.26
2019-05-02T14:31:44.460Z,14.09
2019-05-02T14:34:32.873Z,14.07
2019-05-02T14:37:02.528Z,14.32
2019-05-02T14:39:32.611Z,14.23
2019-05-02T14:42:02.307Z,14.29
2019-05-02T14:45:00.354Z,14.27
2019-05-02T14:47:03.340Z,14.17
2019-05-02T14:49:32.983Z,14.02
2019-05-02T14:52:06.898Z,14.03
2019-05-02T14:54:38.147Z,14.07
2019-05-02T14:57:17.103Z,14.03
2019-05-02T14:59:44.078Z,14.09
2019-05-02T15:02:15.706Z,14.30
2019-05-02T15:04:48.902Z,14.23
2019-05-02T15:07:17.667Z,14.16
2019-05-02T15:09:48.025Z,14.30
2019-05-02T15:12:19.042Z,14.45
2019-05-02T15:14:49.245Z,14.60
2019-05-02T15:17:20.113Z,14.55
2019-05-02T15:19:49.756Z,14.44
2019-05-02T15:22:19.474Z,14.52
2019-05-02T15:24:49.125Z,14.72
2019-05-02T15:27:18.781Z,14.83
2019-05-02T15:29:48.396Z,14.73
2019-05-02T15:32:21.928Z,14.63
2019-05-02T15:35:02.415Z,14.60
2019-05-02T15:37:35.626Z,14.82
2019-05-02T15:42:36.309Z,15.01
2019-05-02T15:45:07.068Z,15.11
2019-05-02T15:47:41.099Z,15.04
2019-05-02T15:50:08.102Z,14.99
2019-05-02T15:52:39.384Z,15.05
2019-05-02T15:55:09.151Z,14.93
2019-05-02T15:57:45.312Z,14.94
2019-05-02T16:00:15.483Z,14.81
2019-05-02T16:02:44.254Z,14.94
2019-05-02T16:05:14.714Z,15.24
2019-05-02T16:07:46.647Z,15.16
2019-05-02T16:10:16.029Z,14.83
2019-05-02T16:12:47.322Z,14.59
2019-05-02T16:15:24.745Z,14.53
2019-05-02T16:17:48.425Z,14.64
2019-05-02T16:20:21.224Z,15.29
2019-05-02T16:22:52.417Z,16.02
2019-05-02T16:25:24.579Z,15.74
2019-05-02T16:27:57.501Z,15.84
2019-05-02T16:30:25.048Z,15.65
2019-05-02T16:33:02.738Z,15.48
2019-05-02T16:35:34.146Z,15.02
2019-05-02T16:38:03.880Z,14.66
2019-05-02T16:40:34.915Z,14.50
2019-05-02T16:43:04.732Z,14.50
2019-05-02T16:45:34.370Z,14.50
2019-05-02T16:48:04.261Z,14.22
2019-05-02T16:50:36.658Z,13.92
2019-05-02T16:53:05.312Z,13.74
2019-05-02T16:55:34.946Z,13.65
2019-05-02T16:58:06.974Z,13.69
2019-05-02T17:00:36.925Z,13.60
2019-05-02T17:03:07.296Z,13.51
2019-05-02T17:05:39.470Z,13.40
2019-05-02T17:08:10.848Z,13.43
2019-05-02T17:10:47.216Z,13.34
2019-05-02T17:13:14.220Z,13.26
2019-05-02T17:15:43.865Z,13.31
2019-05-02T17:18:17.854Z,13.23
2019-05-02T17:20:47.041Z,13.27
2019-05-02T17:23:16.253Z,13.50
2019-05-02T17:25:45.894Z,14.34
2019-05-02T17:28:15.517Z,14.58
2019-05-02T17:30:45.472Z,14.71
2019-05-02T17:33:16.413Z,14.86
2019-05-02T17:35:51.257Z,14.76
2019-05-02T17:38:19.076Z,14.32
2019-05-02T17:40:51.589Z,13.76
2019-05-02T17:43:20.235Z,13.54
2019-05-02T17:45:49.875Z,13.32
2019-05-02T17:48:19.501Z,13.21
2019-05-02T17:51:02.894Z,13.07
2019-05-02T17:53:33.937Z,12.84
2019-05-02T17:56:04.225Z,12.78
2019-05-02T17:58:33.852Z,12.76
2019-05-02T18:01:05.150Z,12.68
2019-05-02T18:03:35.472Z,12.65
2019-05-02T18:06:07.511Z,12.52
2019-05-02T18:08:36.967Z,12.44
2019-05-02T18:11:06.619Z,12.38
2019-05-02T18:13:36.239Z,12.25
2019-05-02T18:16:07.640Z,12.22
2019-05-02T18:18:42.144Z,12.16
2019-05-02T18:21:08.627Z,12.07
2019-05-02T18:23:38.252Z,12.03
2019-05-02T18:26:07.902Z,11.99
2019-05-02T18:28:46.989Z,11.86
2019-05-02T18:31:08.884Z,11.83
2019-05-02T18:33:41.014Z,11.81
2019-05-02T18:36:09.844Z,11.70
2019-05-02T18:38:39.473Z,11.66
2019-05-02T18:41:09.129Z,11.64
2019-05-02T18:43:43.475Z,11.58
2019-05-02T18:46:10.121Z,11.54
2019-05-02T18:48:44.191Z,11.50
2019-05-02T18:51:11.147Z,11.45
2019-05-02T18:53:42.354Z,11.38
2019-05-02T18:56:12.432Z,11.30
2019-05-02T18:58:45.124Z,11.25
2019-05-02T19:01:17.390Z,11.27
2019-05-02T19:03:47.092Z,11.18
2019-05-02T19:06:16.609Z,11.17
2019-05-02T19:08:51.751Z,11.06
2019-05-02T19:11:22.142Z,11.03
2019-05-02T19:13:52.733Z,11.02
2019-05-02T19:16:24.920Z,10.99
2019-05-02T19:18:57.294Z,10.94
2019-05-02T19:21:26.338Z,10.90
2019-05-02T19:23:56.414Z,10.85
2019-05-02T19:26:26.108Z,10.81
2019-05-02T19:28:57.401Z,10.78
2019-05-02T19:31:28.669Z,10.78
2019-05-02T19:33:58.324Z,10.68
2019-05-02T19:36:27.954Z,10.62
2019-05-02T19:39:05.721Z,10.56
2019-05-02T19:41:28.993Z,10.51
2019-05-02T19:43:58.651Z,10.46
2019-05-02T19:46:34.723Z,10.43
2019-05-02T19:48:59.622Z,10.33
2019-05-02T19:51:29.240Z,10.29
2019-05-02T19:54:00.868Z,10.25
2019-05-02T19:56:34.890Z,10.17
2019-05-02T19:59:02.709Z,10.19
2019-05-02T20:01:32.519Z,10.11
2019-05-02T20:04:05.950Z,10.03
2019-05-02T20:06:33.561Z,10.00
2019-05-02T20:09:08.274Z,10.00
2019-05-02T20:11:35.784Z,10.04
2019-05-02T20:14:09.484Z,10.05
2019-05-02T20:16:44.232Z,10.14
2019-05-02T20:19:12.479Z,10.21
2019-05-02T20:21:43.794Z,10.23
2019-05-02T20:24:17.372Z,10.23
2019-05-02T20:26:46.643Z,10.28
2019-05-02T20:29:16.378Z,10.33
2019-05-02T20:31:46.000Z,10.32
2019-05-02T20:34:15.660Z,10.32
2019-05-02T20:36:45.384Z,10.30
2019-05-02T20:39:15.034Z,10.32
2019-05-02T20:41:44.657Z,10.31
2019-05-02T20:44:14.313Z,10.31
2019-05-02T20:46:43.962Z,10.38
2019-05-02T20:49:13.612Z,10.36
2019-05-02T20:51:43.250Z,10.38
2019-05-02T20:54:12.893Z,10.47
2019-05-02T20:56:42.798Z,10.53
2019-05-02T20:59:12.884Z,10.50
2019-05-02T21:01:43.027Z,10.53
2019-05-02T21:04:12.720Z,10.60
2019-05-02T21:06:44.279Z,10.59
2019-05-02T21:09:15.554Z,10.67
2019-05-02T21:11:49.767Z,10.69
2019-05-02T21:14:21.603Z,10.72
2019-05-02T21:16:50.919Z,10.77
2019-05-02T21:19:21.736Z,10.78
2019-05-02T21:21:52.598Z,10.82
2019-05-02T21:24:22.645Z,10.88
2019-05-02T21:26:52.707Z,10.92
2019-05-02T21:29:22.914Z,10.99
2019-05-02T21:31:52.939Z,11.04
2019-05-02T21:34:22.578Z,11.10
2019-05-02T21:36:52.680Z,11.13
2019-05-02T21:39:22.645Z,11.18
2019-05-02T21:41:52.653Z,11.18
2019-05-02T21:44:22.417Z,11.27
2019-05-02T21:46:52.015Z,11.25
2019-05-02T21:49:39.431Z,11.29
2019-05-02T21:52:11.889Z,11.25
2019-05-02T21:54:46.213Z,11.18
2019-05-02T21:57:17.499Z,11.14
2019-05-02T21:59:47.137Z,11.12
2019-05-02T22:02:17.820Z,11.12
2019-05-02T22:04:47.444Z,11.05
2019-05-02T22:07:17.095Z,11.05
2019-05-02T22:09:46.826Z,10.95
2019-05-02T22:12:16.474Z,10.94
2019-05-02T22:14:46.106Z,10.95
2019-05-02T22:17:17.192Z,11.01
2019-05-02T22:19:46.859Z,10.97
2019-05-02T22:22:16.517Z,10.96
2019-05-02T22:24:46.148Z,10.97
2019-05-02T22:27:15.798Z,11.00
2019-05-02T22:29:45.449Z,10.96
2019-05-02T22:32:15.104Z,10.94
2019-05-02T22:34:45.325Z,10.94
2019-05-02T22:37:16.596Z,10.94
2019-05-02T22:39:47.896Z,10.96
2019-05-02T22:42:17.629Z,11.02
2019-05-02T22:44:47.356Z,11.04
2019-05-02T22:47:16.973Z,11.07
2019-05-02T22:49:46.635Z,11.06
2019-05-02T22:52:16.261Z,11.06
2019-05-02T22:54:45.919Z,11.05
2019-05-02T22:57:15.549Z,11.02
2019-05-02T22:59:45.309Z,11.03
2019-05-02T23:02:17.752Z,11.04
2019-05-02T23:04:47.409Z,11.01
2019-05-02T23:07:17.136Z,11.00
2019-05-02T23:09:46.918Z,10.97
2019-05-02T23:12:16.660Z,10.94
2019-05-02T23:14:46.314Z,10.92
2019-05-02T23:17:15.936Z,10.92
2019-05-02T23:19:45.589Z,10.91
2019-05-02T23:22:15.210Z,10.92
2019-05-02T23:25:02.909Z,10.92
2019-05-02T23:27:34.240Z,10.89
2019-05-02T23:30:05.537Z,10.91
2019-05-02T23:32:35.166Z,10.86
2019-05-02T23:35:07.459Z,10.81
2019-05-02T23:37:37.363Z,10.85
2019-05-02T23:40:07.557Z,10.81
2019-05-02T23:42:37.182Z,10.75
2019-05-02T23:45:07.100Z,10.72
2019-05-02T23:47:36.757Z,10.70
2019-05-02T23:50:06.577Z,10.66
2019-05-02T23:52:36.210Z,10.68
2019-05-02T23:55:08.011Z,10.67
2019-05-02T23:57:37.633Z,10.61
